Time;durP1;ratioP1;P1;durP2;ratioP2;P2;SDS_P1;SDS_P2;PMS_P1;PMS_P2;Temp;Humidity;BMP_temperature;BMP_pressure;BME280_temperature;BME280_humidity;BME280_pressure;Samples;Min_cycle;Max_cycle;Signal;HPM_P1;HPM_P2
2022/01/28 00:00:49;;;;;;;32.90;15.93;;;-4.50;99.90;;;;;;5054483;28;20089;-66
2022/01/28 00:03:16;;;;;;;35.10;16.27;;;-4.60;99.90;;;;;;5036392;28;20027;-68
2022/01/28 00:05:43;;;;;;;37.97;17.90;;;-4.70;99.90;;;;;;5054344;28;20757;-67
2022/01/28 00:08:09;;;;;;;39.73;18.87;;;-4.70;99.90;;;;;;5054254;28;20060;-68
2022/01/28 00:10:39;;;;;;;42.47;21.03;;;-4.80;99.90;;;;;;5054263;28;20033;-67
2022/01/28 00:13:18;;;;;;;43.47;20.03;;;-4.80;99.90;;;;;;5054189;28;20047;-68
2022/01/28 00:15:56;;;;;;;56.47;28.83;;;-4.80;99.90;;;;;;5048398;28;20404;-67
2022/01/28 00:37:59;;;;;;;96.30;49.53;;;-5.10;99.90;;;;;;5053909;28;20086;-66
2022/01/28 00:40:12;;;;;;;105.80;51.77;;;-5.20;99.90;;;;;;5052972;28;20040;-66
2022/01/28 00:42:38;;;;;;;104.17;53.10;;;-5.30;99.90;;;;;;5053665;28;20108;-66
2022/01/28 00:45:05;;;;;;;102.57;53.17;;;-5.20;99.90;;;;;;5053288;28;20127;-66
2022/01/28 00:47:31;;;;;;;106.67;50.57;;;-5.20;99.90;;;;;;5052406;28;20441;-66
2022/01/28 00:49:57;;;;;;;71.30;35.27;;;-5.30;99.90;;;;;;5053421;28;20091;-67
2022/01/28 00:52:23;;;;;;;63.33;30.93;;;-5.40;99.90;;;;;;5051517;28;20401;-67
2022/01/28 00:54:49;;;;;;;54.53;28.20;;;-5.20;99.90;;;;;;5042568;28;20029;-67
2022/01/28 00:57:15;;;;;;;58.13;26.60;;;-5.10;99.90;;;;;;5035433;28;20025;-67
2022/01/28 00:59:41;;;;;;;47.57;22.67;;;-5.00;99.90;;;;;;5053274;28;20017;-67
2022/01/28 01:02:07;;;;;;;41.47;19.17;;;-5.20;99.90;;;;;;5053327;28;20023;-67
2022/01/28 01:04:33;;;;;;;40.93;18.87;;;-5.30;99.90;;;;;;5053223;28;20484;-67
2022/01/28 01:07:01;;;;;;;34.00;14.83;;;-5.30;99.90;;;;;;5052998;28;20017;-66
2022/01/28 01:09:27;;;;;;;30.67;12.47;;;-5.40;99.90;;;;;;5053189;28;20120;-68
2022/01/28 01:11:53;;;;;;;36.07;14.10;;;-5.30;99.90;;;;;;5053075;28;20488;-66
2022/01/28 01:14:20;;;;;;;29.37;12.37;;;-5.40;99.90;;;;;;5053089;28;20079;-67
2022/01/28 01:17:36;;;;;;;38.10;13.83;;;-5.40;99.90;;;;;;5035064;28;20024;-67
2022/01/28 01:19:38;;;;;;;28.60;14.03;;;-5.40;99.90;;;;;;5042001;28;20495;-67
2022/01/28 01:22:07;;;;;;;27.03;12.63;;;-5.10;99.90;;;;;;5053207;28;20045;-69
2022/01/28 01:24:37;;;;;;;31.70;12.97;;;-5.20;99.90;;;;;;5035033;28;20385;-66
2022/01/28 01:27:04;;;;;;;28.43;13.27;;;-5.30;99.90;;;;;;5050407;28;20028;-67
2022/01/28 01:29:30;;;;;;;25.33;12.13;;;-5.40;99.90;;;;;;5050475;28;20033;-66
2022/01/28 01:32:02;;;;;;;28.83;14.77;;;-5.40;99.90;;;;;;5044432;28;20563;-66
2022/01/28 01:34:28;;;;;;;39.50;13.77;;;-5.40;99.90;;;;;;5046620;28;20032;-67
2022/01/28 01:36:55;;;;;;;34.43;15.20;;;-5.40;99.90;;;;;;5058847;28;20384;-67
2022/01/28 01:39:28;;;;;;;29.20;13.90;;;-5.40;99.90;;;;;;5061433;28;20096;-67
2022/01/28 01:41:59;;;;;;;30.17;13.90;;;-5.20;99.90;;;;;;5053287;28;20020;-65
2022/01/28 01:45:38;;;;;;;30.17;14.13;;;-5.30;99.90;;;;;;5042742;28;20063;-67
2022/01/28 01:52:27;;;;;;;28.87;11.80;;;-5.40;99.90;;;;;;5049365;28;20443;-66
2022/01/28 01:54:53;;;;;;;35.60;12.20;;;-5.40;99.90;;;;;;5031882;28;20291;-67
2022/01/28 01:57:20;;;;;;;41.00;12.77;;;-5.50;99.90;;;;;;5070567;28;20048;-68
2022/01/28 01:59:48;;;;;;;31.53;13.80;;;-5.40;99.90;;;;;;5051012;28;20071;-67
2022/01/28 02:02:14;;;;;;;31.50;14.50;;;-5.40;99.90;;;;;;5035257;28;20025;-67
2022/01/28 02:04:40;;;;;;;36.00;15.33;;;-5.20;99.90;;;;;;5050081;28;20048;-67
2022/01/28 02:07:06;;;;;;;37.60;14.27;;;-5.30;99.90;;;;;;5047835;28;20025;-67
2022/01/28 02:09:33;;;;;;;40.80;15.47;;;-5.30;99.90;;;;;;5052224;28;20039;-67
2022/01/28 02:11:59;;;;;;;34.10;15.43;;;-5.40;99.90;;;;;;5048433;28;20151;-67
2022/01/28 02:14:29;;;;;;;39.87;18.57;;;-5.40;99.90;;;;;;5036019;28;20029;-67
2022/01/28 02:16:55;;;;;;;37.70;18.47;;;-5.50;99.90;;;;;;5031392;28;20025;-67
2022/01/28 02:19:21;;;;;;;44.23;19.53;;;-5.50;99.90;;;;;;5050456;28;20755;-68
2022/01/28 02:21:50;;;;;;;44.63;19.63;;;-5.60;99.90;;;;;;5037786;28;20407;-67
2022/01/28 02:24:22;;;;;;;53.40;21.30;;;-5.60;99.90;;;;;;5050773;28;20034;-66
2022/01/28 02:26:48;;;;;;;59.90;22.67;;;-5.60;99.90;;;;;;5028998;28;20119;-66
2022/01/28 02:29:26;;;;;;;61.23;25.00;;;-5.50;99.90;;;;;;5047843;28;20029;-66
2022/01/28 02:31:52;;;;;;;50.77;25.97;;;-5.20;99.90;;;;;;5031372;28;20024;-65
2022/01/28 02:34:18;;;;;;;64.87;27.63;;;-5.30;99.90;;;;;;5047371;28;20027;-66
2022/01/28 02:36:45;;;;;;;79.83;26.30;;;-5.40;99.90;;;;;;5048313;28;20032;-67
2022/01/28 02:39:12;;;;;;;56.90;22.87;;;-5.40;99.90;;;;;;5047934;28;20025;-66
2022/01/28 02:41:42;;;;;;;68.30;28.70;;;-5.40;99.90;;;;;;5050758;28;20013;-66
2022/01/28 02:44:38;;;;;;;56.83;25.30;;;-5.30;99.90;;;;;;5034613;28;20045;-67
2022/01/28 02:47:05;;;;;;;65.30;24.20;;;-5.30;99.90;;;;;;5037160;28;20045;-66
2022/01/28 02:49:36;;;;;;;81.50;28.17;;;-5.30;99.90;;;;;;5051008;28;20037;-66
2022/01/28 02:52:04;;;;;;;65.27;27.50;;;-5.30;99.90;;;;;;5050277;28;20508;-66
2022/01/28 02:54:33;;;;;;;62.77;26.43;;;-5.20;99.90;;;;;;5049943;28;20464;-65
2022/01/28 02:57:04;;;;;;;68.13;26.93;;;-5.20;99.90;;;;;;5031791;28;20040;-66
2022/01/28 02:59:30;;;;;;;73.73;27.80;;;-5.00;99.90;;;;;;5046914;28;20384;-67
2022/01/28 03:01:56;;;;;;;63.67;27.27;;;-4.90;99.90;;;;;;5026840;28;20025;-67
2022/01/28 03:05:01;;;;;;;68.90;27.93;;;-4.90;99.90;;;;;;5021464;28;20100;-66
2022/01/28 03:07:24;;;;;;;65.43;29.37;;;-4.70;99.90;;;;;;5040151;28;20025;-67
2022/01/28 03:15:52;;;;;;;77.77;32.10;;;-4.10;99.90;;;;;;5042986;28;20029;-67
2022/01/28 03:18:23;;;;;;;83.07;35.90;;;-3.80;99.90;;;;;;5028756;28;20043;-67
2022/01/28 03:23:18;;;;;;;140.30;61.60;;;-3.60;99.90;;;;;;5048593;28;20377;-67
2022/01/28 03:25:46;;;;;;;164.53;65.73;;;-3.40;99.90;;;;;;5049770;28;20091;-68
2022/01/28 03:28:15;;;;;;;128.23;51.17;;;-3.30;99.90;;;;;;5047948;28;20029;-66
2022/01/28 03:30:41;;;;;;;107.07;39.87;;;-3.10;99.90;;;;;;5039712;28;20050;-66
2022/01/28 03:33:08;;;;;;;99.50;40.57;;;-2.90;99.90;;;;;;5035890;28;20036;-68
2022/01/28 03:35:35;;;;;;;126.47;47.43;;;-2.90;99.90;;;;;;5055097;28;20021;-66
2022/01/28 03:38:06;;;;;;;135.30;52.07;;;-2.80;99.90;;;;;;5049809;28;20056;-67
2022/01/28 03:40:36;;;;;;;98.37;46.20;;;-2.60;99.90;;;;;;5033743;28;20033;-67
2022/01/28 03:43:03;;;;;;;77.60;35.60;;;-2.60;99.90;;;;;;5052876;28;20224;-69
2022/01/28 03:45:30;;;;;;;90.13;37.93;;;-2.00;99.90;;;;;;5033142;28;20053;-68
2022/01/28 03:47:56;;;;;;;83.80;36.00;;;-1.40;99.90;;;;;;5053740;28;20025;-68
2022/01/28 03:50:22;;;;;;;81.17;37.27;;;-1.10;99.90;;;;;;5053755;28;20025;-68
2022/01/28 03:52:48;;;;;;;92.70;39.93;;;-1.00;99.90;;;;;;5034540;28;20025;-69
2022/01/28 03:55:16;;;;;;;88.13;44.90;;;-1.00;99.90;;;;;;5040651;28;20041;-70
2022/01/28 03:57:42;;;;;;;89.57;41.87;;;-0.80;99.90;;;;;;5035096;28;20393;-70
2022/01/28 04:00:09;;;;;;;69.40;32.17;;;-0.80;99.90;;;;;;5033030;28;20159;-68
2022/01/28 04:02:40;;;;;;;59.03;30.30;;;-0.70;99.90;;;;;;5043080;28;20025;-69
2022/01/28 04:13:33;;;;;;;85.88;44.33;;;-0.30;99.90;;;;;;5049439;28;20115;-68
2022/01/28 04:18:26;;;;;;;109.77;52.37;;;-0.20;99.90;;;;;;5049072;28;20017;-68
2022/01/28 04:20:52;;;;;;;115.20;55.42;;;-0.10;99.90;;;;;;5047281;28;20035;-68
2022/01/28 04:23:18;;;;;;;97.40;50.03;;;-0.10;99.90;;;;;;5047974;28;20020;-69
2022/01/28 04:25:45;;;;;;;110.32;56.78;;;0.00;99.90;;;;;;5049399;28;20044;-69
2022/01/28 04:28:11;;;;;;;180.98;83.35;;;0.00;99.90;;;;;;5024925;28;20044;-69
2022/01/28 04:30:37;;;;;;;149.25;74.32;;;0.20;99.90;;;;;;5044544;28;20029;-69
2022/01/28 04:33:03;;;;;;;137.38;72.57;;;0.10;99.90;;;;;;5031002;28;20029;-70
2022/01/28 04:35:30;;;;;;;123.70;68.95;;;0.00;99.90;;;;;;5045243;28;20142;-68
2022/01/28 04:40:57;;;;;;;151.45;81.15;;;0.10;99.90;;;;;;5047470;28;20438;-70
2022/01/28 04:43:32;;;;;;;152.82;80.78;;;0.10;99.90;;;;;;5041521;28;20025;-70
2022/01/28 04:46:22;;;;;;;159.13;80.60;;;0.00;99.90;;;;;;5008452;28;20382;-69
2022/01/28 04:49:12;;;;;;;127.80;60.83;;;0.10;99.90;;;;;;5009996;28;20033;-69
2022/01/28 05:00:06;;;;;;;131.93;67.57;;;0.50;99.90;;;;;;4970870;28;20775;-70
2022/01/28 05:02:58;;;;;;;131.25;66.18;;;0.60;99.90;;;;;;5004948;28;20044;-71
2022/01/28 05:06:08;;;;;;;149.48;78.40;;;0.90;99.90;;;;;;5012908;28;20164;-70
2022/01/28 05:14:03;;;;;;;74.22;36.30;;;1.30;91.50;;;;;;5030887;28;20374;-68
2022/01/28 05:16:51;;;;;;;113.18;52.85;;;1.50;91.30;;;;;;5028261;28;20034;-68
2022/01/28 05:27:23;;;;;;;70.25;34.13;;;2.10;86.70;;;;;;5025361;28;20155;-69
2022/01/28 05:29:49;;;;;;;72.15;38.15;;;2.10;86.00;;;;;;5007094;28;20481;-69
2022/01/28 05:32:15;;;;;;;118.65;66.82;;;2.10;87.90;;;;;;5024163;28;20013;-69
2022/01/28 05:34:42;;;;;;;101.90;58.30;;;2.10;92.80;;;;;;5024822;28;20126;-70
2022/01/28 05:37:09;;;;;;;103.20;57.55;;;2.20;92.90;;;;;;5025226;28;20481;-70
2022/01/28 05:39:36;;;;;;;108.75;58.40;;;2.30;93.20;;;;;;5037018;28;20033;-70
2022/01/28 05:42:03;;;;;;;106.15;56.33;;;2.30;94.50;;;;;;5016308;28;20033;-70
2022/01/28 05:44:29;;;;;;;92.65;52.40;;;2.30;95.20;;;;;;5026253;28;20042;-71
2022/01/28 05:47:03;;;;;;;96.80;52.97;;;2.40;96.60;;;;;;5029362;28;20033;-70
2022/01/28 05:49:32;;;;;;;93.93;51.42;;;2.60;97.10;;;;;;5007663;28;20172;-69
2022/01/28 05:51:58;;;;;;;91.07;50.95;;;2.60;97.40;;;;;;5029778;28;20035;-69
2022/01/28 05:54:24;;;;;;;82.80;49.28;;;2.80;98.60;;;;;;5024600;28;20025;-72
2022/01/28 05:56:51;;;;;;;92.47;50.08;;;2.60;98.20;;;;;;5016273;28;20018;-69
2022/01/28 05:59:19;;;;;;;85.75;45.47;;;2.60;99.90;;;;;;5011253;28;20025;-69
2022/01/28 06:01:45;;;;;;;84.07;47.35;;;2.70;98.90;;;;;;5018896;28;20164;-69
2022/01/28 06:04:11;;;;;;;81.75;45.85;;;2.90;97.60;;;;;;5009558;28;20032;-69
2022/01/28 06:06:37;;;;;;;83.32;44.08;;;3.20;97.00;;;;;;5010425;28;20021;-71
2022/01/28 06:09:04;;;;;;;72.22;41.45;;;3.30;97.20;;;;;;5026184;28;20484;-69
2022/01/28 06:11:30;;;;;;;73.50;40.22;;;3.50;94.90;;;;;;5004269;28;20164;-70
2022/01/28 06:13:56;;;;;;;80.30;43.53;;;3.80;93.00;;;;;;5024963;28;20036;-70
2022/01/28 06:16:27;;;;;;;74.57;40.47;;;4.00;92.90;;;;;;5001386;28;20037;-71
2022/01/28 06:19:01;;;;;;;70.88;37.35;;;4.10;91.60;;;;;;5028570;28;20041;-71
2022/01/28 06:21:28;;;;;;;78.65;43.25;;;4.20;89.90;;;;;;5030413;28;20029;-70
2022/01/28 06:23:55;;;;;;;84.80;44.75;;;4.50;90.90;;;;;;5034148;28;20033;-69
2022/01/28 06:26:22;;;;;;;85.07;48.28;;;4.50;90.80;;;;;;5014256;28;20079;-69
2022/01/28 06:28:48;;;;;;;91.90;47.25;;;4.70;91.10;;;;;;5031447;28;20029;-70
2022/01/28 06:31:20;;;;;;;80.50;45.45;;;4.60;90.70;;;;;;5012550;28;20170;-70
2022/01/28 06:33:46;;;;;;;74.25;38.30;;;4.90;90.30;;;;;;5024694;28;20474;-69
2022/01/28 06:36:12;;;;;;;71.28;41.08;;;5.00;87.10;;;;;;5028583;28;20244;-70
2022/01/28 06:38:39;;;;;;;71.43;39.25;;;5.10;87.90;;;;;;5031959;28;20017;-70
2022/01/28 06:41:05;;;;;;;77.07;43.33;;;5.20;86.90;;;;;;5014221;28;20029;-71
2022/01/28 06:43:31;;;;;;;70.22;40.47;;;5.30;86.70;;;;;;5028039;28;20036;-69
2022/01/28 06:45:57;;;;;;;85.95;48.42;;;5.50;84.30;;;;;;5037542;28;20025;-70
2022/01/28 06:48:24;;;;;;;84.68;48.35;;;5.50;86.40;;;;;;5030996;28;20044;-69
2022/01/28 06:50:50;;;;;;;89.53;45.08;;;5.60;86.90;;;;;;5030267;28;20036;-70
2022/01/28 06:53:16;;;;;;;84.45;45.47;;;5.80;82.20;;;;;;5038207;28;20032;-69
2022/01/28 06:55:43;;;;;;;81.70;44.65;;;5.90;81.30;;;;;;5014763;28;20025;-69
2022/01/28 06:58:09;;;;;;;69.88;41.50;;;6.10;79.10;;;;;;5036616;28;20128;-71
2022/01/28 07:00:40;;;;;;;72.90;38.00;;;6.20;75.60;;;;;;5036597;28;20029;-70
2022/01/28 07:03:11;;;;;;;57.45;26.40;;;6.40;69.40;;;;;;5030895;28;20032;-71
2022/01/28 07:05:41;;;;;;;51.50;25.75;;;6.60;62.00;;;;;;5034540;28;20021;-70
2022/01/28 07:08:08;;;;;;;54.15;27.77;;;6.80;61.40;;;;;;5030906;28;20083;-69
2022/01/28 07:10:34;;;;;;;65.43;34.78;;;7.20;56.40;;;;;;5026415;28;20025;-67
2022/01/28 07:13:37;;;;;;;39.60;18.50;;;7.10;60.40;;;;;;5036800;28;20059;-70
2022/01/28 07:16:04;;;;;;;61.65;11.43;;;7.50;51.10;;;;;;5031930;28;20036;-69
2022/01/28 07:18:30;;;;;;;15.77;4.30;;;7.70;45.70;;;;;;5032089;28;20414;-70
2022/01/28 07:20:56;;;;;;;17.83;3.40;;;7.90;43.80;;;;;;5032271;28;20051;-70
2022/01/28 07:23:22;;;;;;;13.75;4.22;;;8.00;42.40;;;;;;5012223;28;20049;-69
2022/01/28 07:25:48;;;;;;;17.45;4.75;;;8.00;41.00;;;;;;5008130;28;20695;-70
2022/01/28 07:28:14;;;;;;;14.60;4.55;;;8.00;39.10;;;;;;5007897;28;20510;-69
2022/01/28 07:30:40;;;;;;;8.10;3.83;;;8.30;39.10;;;;;;5029993;28;20025;-70
2022/01/28 07:33:08;;;;;;;20.70;3.47;;;8.20;38.90;;;;;;5033207;28;20021;-70
2022/01/28 07:35:34;;;;;;;11.35;3.13;;;8.30;39.40;;;;;;5040092;28;20060;-69
2022/01/28 07:38:39;;;;;;;10.65;3.90;;;8.40;39.50;;;;;;5036075;28;20111;-69
2022/01/28 07:41:06;;;;;;;22.13;7.18;;;8.40;39.80;;;;;;5028575;28;20025;-69
2022/01/28 07:43:34;;;;;;;11.82;4.65;;;8.30;41.30;;;;;;5043810;28;20029;-69
2022/01/28 07:46:00;;;;;;;11.35;4.53;;;8.40;39.90;;;;;;5053558;28;20039;-69
2022/01/28 07:48:26;;;;;;;8.25;4.07;;;8.20;41.50;;;;;;5054240;28;20078;-70
2022/01/28 07:50:53;;;;;;;33.28;19.35;;;8.50;38.60;;;;;;5038259;28;20033;-69
2022/01/28 07:53:19;;;;;;;41.03;22.55;;;8.40;44.70;;;;;;5056778;28;20037;-70
2022/01/28 07:55:45;;;;;;;43.83;22.80;;;8.00;50.20;;;;;;5060362;28;20025;-69
2022/01/28 07:58:11;;;;;;;46.35;21.98;;;8.00;51.70;;;;;;5031208;28;20021;-70
2022/01/28 08:00:37;;;;;;;36.90;20.80;;;7.80;52.40;;;;;;5058831;28;20017;-67
2022/01/28 08:03:04;;;;;;;44.13;21.73;;;7.80;52.30;;;;;;5056567;28;20103;-68
2022/01/28 08:05:30;;;;;;;44.20;22.67;;;7.70;52.70;;;;;;5052100;28;20060;-70
2022/01/28 08:07:58;;;;;;;45.40;25.92;;;7.60;53.30;;;;;;5044606;28;20067;-69
2022/01/28 08:10:24;;;;;;;57.45;33.90;;;7.60;53.60;;;;;;5034363;28;20507;-69
2022/01/28 08:12:52;;;;;;;54.55;33.78;;;7.60;55.10;;;;;;5050420;28;20032;-68
2022/01/28 08:15:20;;;;;;;54.17;32.72;;;7.20;56.40;;;;;;5050480;28;20025;-68
2022/01/28 08:17:46;;;;;;;59.58;34.83;;;7.30;56.20;;;;;;5051850;28;20028;-69
2022/01/28 08:20:13;;;;;;;59.30;33.80;;;7.20;57.00;;;;;;5046411;28;20026;-72
2022/01/28 08:22:47;;;;;;;65.85;34.55;;;7.10;57.00;;;;;;5030928;28;20108;-70
2022/01/28 08:25:18;;;;;;;57.95;34.38;;;7.00;57.20;;;;;;5030162;28;20024;-69
2022/01/28 08:27:46;;;;;;;55.83;33.20;;;7.00;57.70;;;;;;5039492;28;20474;-68
2022/01/28 08:30:15;;;;;;;54.83;33.30;;;7.10;57.90;;;;;;5043337;28;20032;-69
2022/01/28 08:32:41;;;;;;;51.85;31.45;;;7.20;57.10;;;;;;5047530;28;20426;-69
2022/01/28 08:35:08;;;;;;;52.40;31.88;;;7.00;57.20;;;;;;5030359;28;20017;-69
2022/01/28 08:37:34;;;;;;;52.30;30.50;;;7.10;56.80;;;;;;5035169;28;20036;-69
2022/01/28 08:40:01;;;;;;;48.70;30.80;;;7.20;56.70;;;;;;5072033;28;20025;-69
2022/01/28 08:42:28;;;;;;;46.25;28.23;;;7.20;56.80;;;;;;5038827;28;20025;-68
2022/01/28 08:44:54;;;;;;;47.35;28.08;;;7.20;56.50;;;;;;5028805;28;20055;-69
2022/01/28 08:47:23;;;;;;;53.03;28.92;;;7.20;56.00;;;;;;5061594;28;20780;-69
2022/01/28 08:49:49;;;;;;;50.08;29.42;;;7.20;55.80;;;;;;5053654;28;20481;-69
2022/01/28 08:52:16;;;;;;;50.10;29.48;;;7.30;55.70;;;;;;5033242;28;20088;-72
2022/01/28 08:54:45;;;;;;;50.17;31.15;;;7.50;55.00;;;;;;5050832;28;20051;-69
2022/01/28 08:57:12;;;;;;;54.35;31.05;;;7.60;54.60;;;;;;5031231;28;20445;-70
2022/01/28 08:59:40;;;;;;;54.25;30.73;;;7.80;54.40;;;;;;5033848;28;20025;-68
2022/01/28 09:02:19;;;;;;;58.22;32.17;;;8.10;53.00;;;;;;5052564;28;20032;-69
2022/01/28 09:04:46;;;;;;;54.75;34.15;;;8.20;52.80;;;;;;5045531;28;20075;-69
2022/01/28 09:07:12;;;;;;;67.22;34.72;;;8.00;53.10;;;;;;5042362;28;20025;-69
2022/01/28 09:09:48;;;;;;;56.38;35.42;;;8.10;53.60;;;;;;5040337;28;20043;-71
2022/01/28 09:12:30;;;;;;;54.35;33.08;;;8.10;53.50;;;;;;5042876;28;20021;-69
2022/01/28 09:14:57;;;;;;;56.33;33.67;;;8.10;53.40;;;;;;5050186;28;20063;-69
2022/01/28 09:17:25;;;;;;;57.03;32.42;;;8.00;53.40;;;;;;5041611;28;20049;-68
2022/01/28 09:19:51;;;;;;;56.72;30.83;;;7.90;53.80;;;;;;5047988;28;20029;-69
2022/01/28 09:22:21;;;;;;;46.03;27.33;;;7.90;53.80;;;;;;5027551;28;20477;-68
2022/01/28 09:24:48;;;;;;;41.33;24.75;;;7.80;54.00;;;;;;5033347;28;20021;-68
2022/01/28 09:27:14;;;;;;;45.47;24.58;;;7.70;55.30;;;;;;5049138;28;20083;-69
2022/01/28 09:29:40;;;;;;;41.95;23.80;;;7.60;56.00;;;;;;5058535;28;20086;-70
2022/01/28 09:32:08;;;;;;;40.08;21.88;;;7.50;56.60;;;;;;5054887;28;20032;-70
2022/01/28 09:34:34;;;;;;;37.35;20.92;;;7.30;56.90;;;;;;5051604;28;20036;-68
2022/01/28 09:37:00;;;;;;;40.55;21.52;;;7.10;57.10;;;;;;5046212;28;20219;-68
2022/01/28 09:39:29;;;;;;;41.95;22.77;;;7.10;57.10;;;;;;5057141;28;20022;-67
2022/01/28 09:42:00;;;;;;;37.22;20.92;;;6.90;57.70;;;;;;5052830;28;20017;-68
2022/01/28 09:44:31;;;;;;;42.85;21.40;;;6.90;57.80;;;;;;5048884;28;20037;-68
2022/01/28 09:46:59;;;;;;;39.72;22.95;;;7.00;58.50;;;;;;5040799;28;20388;-69
2022/01/28 09:49:30;;;;;;;36.25;22.75;;;6.80;58.40;;;;;;5055061;28;20071;-70
2022/01/28 09:52:04;;;;;;;37.40;22.45;;;6.70;58.60;;;;;;5037414;28;20119;-69
2022/01/28 09:54:31;;;;;;;44.05;22.55;;;6.50;59.10;;;;;;5032192;28;20022;-70
2022/01/28 09:56:59;;;;;;;44.85;24.65;;;6.70;59.20;;;;;;5037913;28;20029;-68
2022/01/28 09:59:25;;;;;;;46.42;23.70;;;6.80;59.10;;;;;;5038624;28;20021;-68
2022/01/28 10:01:53;;;;;;;37.58;22.80;;;6.70;58.50;;;;;;5052180;28;20477;-69
2022/01/28 10:04:20;;;;;;;37.08;21.58;;;6.80;58.40;;;;;;5024659;28;20028;-70
2022/01/28 10:06:48;;;;;;;42.60;25.35;;;6.70;58.50;;;;;;5032235;28;20094;-68
2022/01/28 10:09:17;;;;;;;44.47;25.42;;;6.70;58.60;;;;;;5029032;28;20051;-69
2022/01/28 10:11:47;;;;;;;44.97;24.35;;;6.70;58.90;;;;;;5049820;28;20086;-69
2022/01/28 10:14:18;;;;;;;45.30;25.00;;;6.70;58.60;;;;;;5029753;28;20065;-68
2022/01/28 10:16:58;;;;;;;40.67;23.10;;;6.70;58.70;;;;;;5045507;28;20117;-69
2022/01/28 10:19:26;;;;;;;48.45;26.88;;;6.60;58.50;;;;;;5045469;28;20037;-69
2022/01/28 10:21:53;;;;;;;48.22;25.35;;;6.60;58.70;;;;;;5029145;28;20526;-69
2022/01/28 10:24:25;;;;;;;43.30;25.77;;;6.60;58.60;;;;;;5048538;28;20079;-69
2022/01/28 10:26:59;;;;;;;48.95;25.80;;;6.60;58.70;;;;;;5031068;28;20029;-69
2022/01/28 10:29:32;;;;;;;46.65;27.83;;;6.60;59.00;;;;;;5031715;28;20439;-69
2022/01/28 10:32:03;;;;;;;51.45;27.05;;;6.60;58.90;;;;;;5052735;28;20048;-69
2022/01/28 10:34:35;;;;;;;50.38;26.90;;;6.40;59.10;;;;;;5041498;28;20123;-70
2022/01/28 10:37:13;;;;;;;55.17;28.00;;;6.30;59.20;;;;;;5038531;28;20097;-69
2022/01/28 10:39:45;;;;;;;43.55;28.95;;;6.20;59.50;;;;;;5042525;28;20044;-69
2022/01/28 10:42:13;;;;;;;52.40;29.38;;;6.10;59.60;;;;;;5054189;28;20017;-68
2022/01/28 10:44:52;;;;;;;54.95;29.40;;;6.10;60.10;;;;;;5048997;28;20045;-70
2022/01/28 10:47:33;;;;;;;53.67;31.15;;;6.10;60.70;;;;;;5034086;28;20163;-70
2022/01/28 10:50:00;;;;;;;52.85;31.15;;;6.10;61.10;;;;;;5043073;28;20111;-69
2022/01/28 10:52:34;;;;;;;62.55;35.10;;;6.10;61.70;;;;;;5057849;28;20037;-69
2022/01/28 10:55:01;;;;;;;63.00;35.00;;;6.00;63.60;;;;;;5051272;28;20029;-68
2022/01/28 10:57:30;;;;;;;65.80;37.45;;;5.90;64.90;;;;;;5021519;28;20028;-70
2022/01/28 11:00:01;;;;;;;64.90;38.42;;;5.60;66.80;;;;;;5033906;28;20033;-69
2022/01/28 11:02:27;;;;;;;76.82;35.40;;;5.70;67.50;;;;;;5048865;28;20040;-69
2022/01/28 11:04:57;;;;;;;59.53;33.47;;;5.60;67.60;;;;;;5053200;28;20059;-70
2022/01/28 11:07:23;;;;;;;57.00;33.20;;;5.60;68.10;;;;;;5050767;28;20020;-69
2022/01/28 11:09:50;;;;;;;58.67;32.13;;;5.60;68.00;;;;;;5053334;28;20025;-70
2022/01/28 11:12:16;;;;;;;58.10;31.83;;;5.50;68.00;;;;;;5035264;28;20181;-68
2022/01/28 11:14:43;;;;;;;56.13;33.38;;;5.40;68.30;;;;;;5053970;28;20368;-69
2022/01/28 11:17:11;;;;;;;50.70;31.65;;;5.30;68.50;;;;;;5057819;28;20035;-69
2022/01/28 11:19:39;;;;;;;53.50;33.22;;;5.20;69.40;;;;;;5052666;28;20033;-69
2022/01/28 11:22:16;;;;;;;56.20;32.30;;;5.10;70.10;;;;;;5033232;28;20028;-68
2022/01/28 11:25:06;;;;;;;61.47;34.97;;;5.00;70.70;;;;;;5052063;28;20020;-69
2022/01/28 11:27:35;;;;;;;66.90;39.58;;;5.00;72.00;;;;;;5053402;28;20508;-68
2022/01/28 11:30:18;;;;;;;74.00;43.17;;;5.00;72.50;;;;;;5036340;28;20021;-70
2022/01/28 11:33:06;;;;;;;82.75;48.97;;;4.90;73.70;;;;;;5050766;28;20028;-69
2022/01/28 11:35:36;;;;;;;82.30;50.17;;;4.70;76.30;;;;;;5050491;28;20127;-70
2022/01/28 11:38:22;;;;;;;92.85;55.03;;;4.60;77.90;;;;;;5051722;28;20105;-69
2022/01/28 11:41:00;;;;;;;110.43;63.05;;;4.60;79.80;;;;;;5050926;28;20029;-68
2022/01/28 11:43:32;;;;;;;112.60;67.55;;;4.40;82.50;;;;;;5047648;28;20022;-69
2022/01/28 11:46:08;;;;;;;113.47;68.78;;;4.30;84.80;;;;;;5033986;28;20139;-69
2022/01/28 11:48:52;;;;;;;119.97;71.70;;;4.20;87.40;;;;;;5045575;28;20076;-68
2022/01/28 11:51:23;;;;;;;129.85;75.10;;;4.10;90.10;;;;;;5049176;28;20059;-70
2022/01/28 11:53:57;;;;;;;130.80;80.78;;;4.20;90.90;;;;;;5057113;28;20025;-68
2022/01/28 11:56:25;;;;;;;130.40;83.57;;;4.10;92.00;;;;;;5028119;28;20029;-69
2022/01/28 11:58:57;;;;;;;146.70;88.25;;;3.90;93.50;;;;;;5051234;28;20219;-69
2022/01/28 12:01:36;;;;;;;145.65;89.15;;;3.90;95.10;;;;;;5030149;28;20083;-69
2022/01/28 12:04:27;;;;;;;145.98;87.65;;;3.90;96.60;;;;;;5051502;28;20021;-68
2022/01/28 12:07:15;;;;;;;141.63;90.75;;;3.90;98.00;;;;;;5034457;28;20481;-68
2022/01/28 12:09:44;;;;;;;152.95;93.05;;;3.90;99.00;;;;;;5048010;28;20033;-68
2022/01/28 12:12:12;;;;;;;163.25;95.45;;;3.80;99.90;;;;;;5045255;28;20032;-69
2022/01/28 12:15:09;;;;;;;155.13;97.38;;;3.80;99.90;;;;;;5044583;28;20033;-70
2022/01/28 12:17:36;;;;;;;184.95;105.20;;;3.80;99.90;;;;;;5048618;28;20025;-68
2022/01/28 12:20:24;;;;;;;181.68;104.82;;;3.70;99.90;;;;;;5039175;28;20074;-68
2022/01/28 12:23:08;;;;;;;176.10;105.20;;;3.60;99.90;;;;;;5046920;28;20032;-69
2022/01/28 12:25:40;;;;;;;183.50;107.07;;;3.60;99.90;;;;;;5033433;28;20029;-68
2022/01/28 12:28:23;;;;;;;187.52;111.75;;;3.60;99.90;;;;;;5029851;28;20033;-68
2022/01/28 12:30:58;;;;;;;191.55;112.13;;;3.60;99.90;;;;;;5031999;28;20041;-70
2022/01/28 12:33:26;;;;;;;190.20;112.88;;;3.60;99.90;;;;;;5031861;28;20452;-70
2022/01/28 12:35:56;;;;;;;193.57;117.78;;;3.50;99.90;;;;;;5045174;28;20036;-70
2022/01/28 12:38:25;;;;;;;192.73;116.18;;;3.50;99.90;;;;;;5042649;28;20028;-71
2022/01/28 12:40:54;;;;;;;186.88;112.47;;;3.40;99.90;;;;;;5027004;28;20025;-70
2022/01/28 12:43:23;;;;;;;202.43;116.10;;;3.40;99.90;;;;;;5044127;28;20030;-70
2022/01/28 12:46:08;;;;;;;208.75;121.50;;;3.50;99.90;;;;;;5040179;28;20121;-71
2022/01/28 12:48:35;;;;;;;200.15;118.82;;;3.40;99.90;;;;;;5050963;28;20443;-69
2022/01/28 12:51:03;;;;;;;211.40;120.32;;;3.40;99.90;;;;;;5048765;28;20071;-71
2022/01/28 12:53:35;;;;;;;219.10;123.88;;;3.30;99.90;;;;;;5052769;28;20029;-70
2022/01/28 12:56:04;;;;;;;207.40;125.93;;;3.30;99.90;;;;;;5035006;28;20026;-69
2022/01/28 12:58:50;;;;;;;214.48;124.10;;;3.30;99.90;;;;;;5055050;28;20071;-70
2022/01/28 13:01:19;;;;;;;214.68;130.30;;;3.30;99.90;;;;;;5042522;28;20079;-69
2022/01/28 13:03:54;;;;;;;222.10;133.00;;;3.20;99.90;;;;;;5047850;28;20124;-69
2022/01/28 13:06:42;;;;;;;230.30;133.85;;;3.20;99.90;;;;;;5041992;28;20093;-70
2022/01/28 13:09:14;;;;;;;238.18;139.68;;;3.20;99.90;;;;;;5043900;28;20037;-69
2022/01/28 13:11:53;;;;;;;242.82;144.25;;;3.20;99.90;;;;;;5038778;28;20029;-70
2022/01/28 13:14:27;;;;;;;239.68;141.63;;;3.20;99.90;;;;;;5047028;28;20373;-69
2022/01/28 13:16:54;;;;;;;245.27;148.30;;;3.20;99.90;;;;;;5067691;28;20108;-69
2022/01/28 13:19:21;;;;;;;252.32;151.27;;;3.20;99.90;;;;;;5054378;28;20666;-69
2022/01/28 13:21:49;;;;;;;254.45;156.02;;;3.20;99.90;;;;;;5043118;28;20036;-69
2022/01/28 13:24:26;;;;;;;255.32;157.48;;;3.10;99.90;;;;;;5021761;28;20029;-69
2022/01/28 13:27:05;;;;;;;264.63;165.73;;;3.20;99.90;;;;;;5049332;28;20476;-69
2022/01/28 13:29:37;;;;;;;268.90;162.48;;;3.00;99.90;;;;;;5048012;28;20052;-70
2022/01/28 13:32:14;;;;;;;265.73;161.27;;;3.00;99.90;;;;;;5032584;28;20036;-69
2022/01/28 13:34:54;;;;;;;260.83;158.90;;;3.00;99.90;;;;;;5030448;28;20037;-69
2022/01/28 13:37:40;;;;;;;264.75;159.13;;;3.00;99.90;;;;;;5029412;28;20443;-69
2022/01/28 13:40:09;;;;;;;263.83;161.02;;;2.90;99.90;;;;;;5053121;28;20033;-69
2022/01/28 13:42:37;;;;;;;280.52;166.68;;;2.90;99.90;;;;;;5034048;28;20021;-69
2022/01/28 13:45:06;;;;;;;270.00;164.77;;;2.80;99.90;;;;;;5049747;28;20115;-68
2022/01/28 13:48:09;;;;;;;266.58;163.13;;;2.80;99.90;;;;;;5051857;28;20496;-69
2022/01/28 13:50:38;;;;;;;267.35;163.48;;;2.80;99.90;;;;;;4970905;28;20546;-70
2022/01/28 13:55:49;;;;;;;277.77;170.98;;;2.50;99.90;;;;;;5051099;28;20029;-67
2022/01/28 13:58:16;;;;;;;293.02;174.93;;;2.40;99.90;;;;;;5032170;28;20029;-67